Time;durP1;ratioP1;P1;durP2;ratioP2;P2;SDS_P1;SDS_P2;PMS_P1;PMS_P2;Temp;Humidity;BMP_temperature;BMP_pressure;BME280_temperature;BME280_humidity;BME280_pressure;Samples;Min_cycle;Max_cycle;Signal;HPM_P1;HPM_P2
2022/11/01 00:02:16;;;;;;;8.70;6.53;;;;;;;3.34;96.81;101621.81;4844453;29;20037;-75
2022/11/01 00:04:42;;;;;;;9.57;7.67;;;;;;;3.27;97.75;101610.81;4842578;29;20033;-73
2022/11/01 00:07:08;;;;;;;11.00;7.53;;;;;;;3.30;99.30;101607.16;4841612;29;20034;-74
2022/11/01 00:09:40;;;;;;;12.63;6.80;;;;;;;3.27;98.97;101615.22;4841444;29;20042;-73
2022/11/01 00:12:05;;;;;;;13.40;8.63;;;;;;;3.22;99.37;101602.34;4841097;29;20471;-75
2022/11/01 00:14:31;;;;;;;11.87;8.27;;;;;;;3.21;99.78;101600.66;4841535;29;20282;-74
2022/11/01 00:16:56;;;;;;;15.27;8.50;;;;;;;3.19;100.00;101597.28;4842186;29;20033;-74
2022/11/01 00:19:22;;;;;;;13.73;8.20;;;;;;;3.24;100.00;101600.47;4841931;29;20029;-74
2022/11/01 00:21:48;;;;;;;11.57;6.50;;;;;;;3.26;100.00;101595.97;4841074;29;20030;-74
2022/11/01 00:24:13;;;;;;;14.20;6.97;;;;;;;3.37;100.00;101604.03;4825493;29;20032;-74
2022/11/01 00:26:39;;;;;;;9.33;6.87;;;;;;;3.39;100.00;101596.88;4841924;29;20374;-73
2022/11/01 00:29:04;;;;;;;12.20;6.40;;;;;;;3.43;100.00;101598.38;4841718;29;20071;-75
2022/11/01 00:31:30;;;;;;;11.50;7.63;;;;;;;3.49;100.00;101598.94;4825104;29;20470;-74
2022/11/01 00:33:55;;;;;;;8.93;7.00;;;;;;;3.52;100.00;101589.06;4842058;29;20086;-74
2022/11/01 00:36:21;;;;;;;12.30;7.30;;;;;;;3.60;100.00;101599.09;4842200;29;20041;-74
2022/11/01 00:38:51;;;;;;;11.23;6.60;;;;;;;3.62;100.00;101589.31;4841689;29;20053;-74
2022/11/01 00:41:18;;;;;;;10.43;6.50;;;;;;;3.57;100.00;101583.50;4842545;29;20044;-74
2022/11/01 00:43:43;;;;;;;14.00;7.60;;;;;;;3.59;100.00;101590.34;4827365;29;20279;-74
2022/11/01 00:46:09;;;;;;;12.80;6.47;;;;;;;3.56;100.00;101581.81;4842879;29;20255;-73
2022/11/01 00:48:36;;;;;;;10.23;5.93;;;;;;;3.57;100.00;101588.78;4842335;29;20128;-73
2022/11/01 00:51:01;;;;;;;20.23;7.57;;;;;;;3.56;100.00;101587.91;4841986;29;20390;-74
2022/11/01 00:53:27;;;;;;;9.60;5.97;;;;;;;3.53;100.00;101576.75;4841666;29;20095;-74
2022/11/01 00:55:58;;;;;;;14.73;7.20;;;;;;;3.47;100.00;101567.44;4841476;29;20026;-73
2022/11/01 00:58:24;;;;;;;11.43;5.93;;;;;;;3.43;100.00;101560.66;4841295;29;20065;-75
2022/11/01 01:00:49;;;;;;;9.97;5.83;;;;;;;3.50;100.00;101561.13;4844330;29;20298;-74
2022/11/01 01:03:15;;;;;;;15.20;5.73;;;;;;;3.53;100.00;101563.56;4845570;29;20026;-74
2022/11/01 01:05:40;;;;;;;9.77;4.90;;;;;;;3.62;100.00;101565.59;4844629;29;20117;-74
2022/11/01 01:08:06;;;;;;;7.87;6.33;;;;;;;3.68;100.00;101565.22;4845240;29;20373;-73
2022/11/01 01:10:33;;;;;;;10.47;5.50;;;;;;;3.71;100.00;101555.31;4835675;29;20090;-74
2022/11/01 01:13:02;;;;;;;8.23;5.70;;;;;;;3.55;100.00;101528.28;4862819;29;20034;-74
2022/11/01 01:15:27;;;;;;;15.57;6.57;;;;;;;3.63;100.00;101554.13;4863881;29;20258;-74
2022/11/01 01:17:53;;;;;;;11.90;7.07;;;;;;;3.58;100.00;101543.03;4863445;29;20273;-75
2022/11/01 01:20:19;;;;;;;10.07;6.13;;;;;;;3.55;100.00;101543.25;4863155;29;20116;-74
2022/11/01 01:22:45;;;;;;;14.30;7.50;;;;;;;3.55;100.00;101544.09;4862742;29;20376;-74
2022/11/01 01:25:10;;;;;;;15.03;6.87;;;;;;;3.57;100.00;101536.09;4862699;29;20258;-75
2022/11/01 01:27:37;;;;;;;16.63;7.10;;;;;;;3.59;100.00;101534.19;4862784;29;20060;-74
2022/11/01 01:30:09;;;;;;;16.33;7.20;;;;;;;3.56;100.00;101518.59;4862839;29;20306;-75
2022/11/01 01:32:35;;;;;;;15.13;7.67;;;;;;;3.46;100.00;101491.16;4862751;29;20090;-73
2022/11/01 01:35:01;;;;;;;19.80;8.70;;;;;;;3.73;100.00;101534.97;4863635;29;20711;-74
2022/11/01 01:37:26;;;;;;;15.90;8.80;;;;;;;3.73;100.00;101526.22;4848577;29;20361;-74
2022/11/01 01:39:52;;;;;;;24.47;8.87;;;;;;;3.73;100.00;101510.44;4848524;29;21275;-74
2022/11/01 01:42:39;;;;;;;17.77;8.40;;;;;;;3.84;100.00;101504.47;4870850;29;20081;-74
2022/11/01 01:45:17;;;;;;;29.10;9.67;;;;;;;3.89;100.00;101505.00;4880155;29;20045;-74
2022/11/01 01:47:45;;;;;;;20.87;10.07;;;;;;;3.80;100.00;101484.56;4885328;29;20270;-73
2022/11/01 01:50:13;;;;;;;14.93;8.60;;;;;;;3.82;100.00;101499.31;4883064;29;20389;-73
2022/11/01 01:52:57;;;;;;;15.07;8.77;;;;;;;3.76;100.00;101493.56;4884982;29;20037;-74
2022/11/01 01:55:59;;;;;;;11.03;7.10;;;;;;;3.76;100.00;101506.75;4884806;29;20029;-72
2022/11/01 01:58:29;;;;;;;14.50;7.67;;;;;;;3.83;100.00;101506.25;4883573;29;20270;-74
2022/11/01 02:00:55;;;;;;;11.67;7.10;;;;;;;3.84;100.00;101497.41;4884207;29;20615;-73
2022/11/01 02:03:24;;;;;;;14.17;7.50;;;;;;;3.87;100.00;101491.94;4864841;29;20269;-74
2022/11/01 02:05:52;;;;;;;;;;;;;;;3.98;100.00;101491.22;4862805;29;20030;-73
2022/11/01 02:08:26;;;;;;;11.02;6.53;;;;;;;3.88;100.00;101485.72;4862522;29;20364;-75
2022/11/01 02:10:55;;;;;;;12.13;6.67;;;;;;;3.88;100.00;101492.78;4845632;29;20053;-74
2022/11/01 02:13:22;;;;;;;10.20;6.90;;;;;;;3.86;100.00;101487.63;4862241;29;20430;-75
2022/11/01 02:16:13;;;;;;;21.00;9.27;;;;;;;3.89;100.00;101490.03;4862144;29;20285;-73
2022/11/01 02:18:51;;;;;;;14.27;7.57;;;;;;;3.85;100.00;101483.28;4862438;29;20338;-73
2022/11/01 02:21:39;;;;;;;13.67;8.93;;;;;;;3.82;100.00;101472.97;4862827;29;20385;-74
2022/11/01 02:24:20;;;;;;;11.30;7.90;;;;;;;3.81;100.00;101484.44;4862243;29;20806;-74
2022/11/01 02:27:22;;;;;;;8.93;7.10;;;;;;;3.81;100.00;101481.81;4864355;29;20036;-73
2022/11/01 02:30:09;;;;;;;11.30;7.97;;;;;;;3.81;100.00;101478.34;4870898;29;20278;-73
2022/11/01 02:32:49;;;;;;;17.00;8.67;;;;;;;3.76;100.00;101456.69;4867049;29;20339;-75
2022/11/01 02:35:23;;;;;;;13.97;7.60;;;;;;;3.78;100.00;101466.22;4862198;29;20707;-74
2022/11/01 02:38:03;;;;;;;13.07;7.23;;;;;;;3.73;100.00;101463.84;4867076;29;20259;-74
2022/11/01 02:40:41;;;;;;;16.83;7.30;;;;;;;3.69;100.00;101461.53;4878988;29;20269;-76
2022/11/01 02:43:15;;;;;;;12.73;7.17;;;;;;;3.66;100.00;101452.03;4883466;29;20289;-74
2022/11/01 02:45:46;;;;;;;11.67;7.33;;;;;;;3.64;100.00;101461.00;4884168;29;20265;-74
2022/11/01 02:48:12;;;;;;;13.97;7.03;;;;;;;3.62;100.00;101458.47;4868990;29;20277;-74
2022/11/01 02:50:47;;;;;;;12.97;7.03;;;;;;;3.64;100.00;101450.47;4884259;29;20321;-74
2022/11/01 02:53:13;;;;;;;8.83;5.87;;;;;;;3.65;100.00;101462.69;4884709;29;20296;-75
2022/11/01 02:55:39;;;;;;;11.63;6.73;;;;;;;3.63;100.00;101452.25;4880336;29;20278;-76
2022/11/01 02:58:27;;;;;;;13.77;7.10;;;;;;;3.67;100.00;101452.88;4861473;29;20040;-74
2022/11/01 03:00:54;;;;;;;11.80;5.47;;;;;;;3.66;100.00;101441.50;4861457;29;20044;-72
2022/11/01 03:03:26;;;;;;;9.03;5.90;;;;;;;3.66;100.00;101438.03;4861289;29;20037;-74
2022/11/01 03:06:04;;;;;;;12.90;6.30;;;;;;;3.72;100.00;101446.34;4861534;29;20290;-72
2022/11/01 03:09:04;;;;;;;8.37;5.33;;;;;;;3.79;100.00;101448.59;4844372;29;20262;-74
2022/11/01 03:11:58;;;;;;;6.97;5.27;;;;;;;3.87;100.00;101439.22;4840391;29;20306;-74
2022/11/01 03:15:19;;;;;;;10.57;5.23;;;;;;;4.00;100.00;101442.72;4861805;29;20285;-74
2022/11/01 03:18:18;;;;;;;7.73;4.90;;;;;;;4.08;100.00;101433.47;4844662;29;20270;-73
2022/11/01 03:20:58;;;;;;;8.17;5.00;;;;;;;4.15;100.00;101437.38;4860076;29;20747;-75
2022/11/01 03:24:02;;;;;;;12.57;5.90;;;;;;;4.18;100.00;101426.63;4861079;29;20295;-74
2022/11/01 03:26:32;;;;;;;10.53;5.73;;;;;;;4.13;100.00;101429.56;4859656;29;20666;-74
2022/11/01 03:29:02;;;;;;;16.23;5.63;;;;;;;4.12;100.00;101438.44;4861005;29;20329;-74
2022/11/01 03:31:30;;;;;;;13.17;7.63;;;;;;;4.09;100.00;101437.78;4844438;29;20627;-74
2022/11/01 03:34:00;;;;;;;12.65;5.93;;;;;;;4.04;100.00;101430.16;4860639;29;20259;-73
2022/11/01 03:36:31;;;;;;;11.87;5.77;;;;;;;3.95;100.00;101431.66;4860412;29;20029;-76
2022/11/01 03:39:02;;;;;;;9.93;6.07;;;;;;;3.91;100.00;101424.06;4860581;29;20661;-75
2022/11/01 03:41:33;;;;;;;9.90;5.33;;;;;;;3.94;100.00;101419.41;4844028;29;20332;-73
2022/11/01 03:43:59;;;;;;;13.63;6.83;;;;;;;3.96;100.00;101417.53;4860474;29;20250;-74
2022/11/01 03:46:25;;;;;;;9.57;6.20;;;;;;;3.97;100.00;101421.84;4860073;29;20281;-74
2022/11/01 03:48:50;;;;;;;10.73;6.43;;;;;;;3.78;100.00;101386.31;4860116;29;20029;-74
2022/11/01 03:51:16;;;;;;;11.83;6.50;;;;;;;4.08;100.00;101422.94;4843396;29;20097;-72
2022/11/01 03:53:42;;;;;;;17.50;7.17;;;;;;;4.10;100.00;101431.56;4860481;29;20089;-73
2022/11/01 03:56:07;;;;;;;13.30;6.60;;;;;;;4.14;100.00;101425.97;4860112;29;20033;-75
2022/11/01 03:58:45;;;;;;;14.07;6.80;;;;;;;4.13;100.00;101432.19;4860081;29;20040;-73
2022/11/01 04:01:13;;;;;;;10.17;7.53;;;;;;;4.14;100.00;101420.72;4860967;29;20033;-74
2022/11/01 04:03:39;;;;;;;14.27;7.20;;;;;;;4.09;100.00;101417.56;4843461;29;20266;-75
2022/11/01 04:06:05;;;;;;;15.67;7.67;;;;;;;4.07;100.00;101413.34;4860243;29;20034;-76
2022/11/01 04:08:31;;;;;;;11.43;6.80;;;;;;;3.99;100.00;101417.31;4860325;29;20768;-74
2022/11/01 04:10:57;;;;;;;12.20;7.53;;;;;;;3.98;100.00;101415.63;4860063;29;20310;-72
2022/11/01 04:13:23;;;;;;;13.77;7.43;;;;;;;4.02;100.00;101411.81;4860035;29;20041;-74
2022/11/01 04:21:34;;;;;;;11.43;7.93;;;;;;;4.06;100.00;101412.50;4861513;29;20262;-75
2022/11/01 04:23:59;;;;;;;14.67;7.63;;;;;;;4.01;100.00;101404.88;4861874;29;20752;-75
2022/11/01 04:26:25;;;;;;;11.13;6.60;;;;;;;3.96;100.00;101393.81;4860838;29;20033;-74
2022/11/01 04:28:56;;;;;;;11.97;7.30;;;;;;;3.98;100.00;101402.44;4860093;29;20033;-74
2022/11/01 04:31:31;;;;;;;11.10;7.93;;;;;;;3.88;100.00;101382.94;4859678;29;20539;-74
2022/11/01 04:33:58;;;;;;;15.97;7.77;;;;;;;3.97;100.00;101398.13;4859977;29;20262;-74
2022/11/01 04:36:24;;;;;;;11.47;6.80;;;;;;;3.97;100.00;101403.41;4862568;29;20336;-75
2022/11/01 04:38:54;;;;;;;11.23;7.63;;;;;;;3.98;100.00;101394.53;4862609;29;20715;-74
2022/11/01 04:41:21;;;;;;;10.60;7.33;;;;;;;3.95;100.00;101392.13;4864199;29;20320;-73
2022/11/01 04:43:47;;;;;;;10.63;7.27;;;;;;;3.95;100.00;101388.63;4864485;29;20607;-74
2022/11/01 04:46:13;;;;;;;14.90;8.47;;;;;;;3.98;100.00;101385.78;4863774;29;20619;-74
2022/11/01 04:48:38;;;;;;;8.83;6.80;;;;;;;4.03;100.00;101381.88;4864462;29;20270;-75
2022/11/01 04:51:04;;;;;;;13.07;8.40;;;;;;;4.12;100.00;101390.13;4864002;29;20041;-74
2022/11/01 04:53:30;;;;;;;14.63;8.53;;;;;;;4.09;100.00;101371.91;4864071;29;20074;-74
2022/11/01 04:55:55;;;;;;;12.77;7.80;;;;;;;4.18;100.00;101385.28;4847336;29;20120;-74
2022/11/01 04:58:21;;;;;;;14.87;9.93;;;;;;;4.14;100.00;101375.06;4863628;29;20401;-73
2022/11/01 05:00:47;;;;;;;17.00;10.27;;;;;;;4.14;100.00;101380.31;4863611;29;20029;-74
2022/11/01 05:03:12;;;;;;;15.80;9.50;;;;;;;4.19;100.00;101376.41;4864426;29;20108;-74
2022/11/01 05:05:38;;;;;;;16.90;9.67;;;;;;;4.20;100.00;101371.97;4863778;29;20049;-74
2022/11/01 05:08:12;;;;;;;14.77;10.03;;;;;;;4.22;100.00;101376.19;4864006;29;20037;-74
2022/11/01 05:10:42;;;;;;;17.27;9.50;;;;;;;4.21;100.00;101371.88;4847357;29;20334;-76
2022/11/01 05:13:10;;;;;;;15.43;10.07;;;;;;;4.19;100.00;101372.94;4864359;29;20334;-73
2022/11/01 05:15:36;;;;;;;16.53;9.90;;;;;;;4.26;100.00;101369.75;4863913;29;20298;-74
2022/11/01 05:18:03;;;;;;;14.73;9.60;;;;;;;4.28;100.00;101369.66;4864232;29;20305;-75
2022/11/01 05:20:32;;;;;;;13.77;10.27;;;;;;;4.33;100.00;101373.66;4863065;29;20096;-76
2022/11/01 05:22:59;;;;;;;13.73;10.17;;;;;;;4.29;100.00;101366.91;4865416;29;20279;-74
2022/11/01 05:25:37;;;;;;;14.37;10.23;;;;;;;4.01;100.00;101317.91;4856500;29;20277;-74
2022/11/01 05:28:09;;;;;;;15.37;10.83;;;;;;;4.30;100.00;101357.19;4864597;29;20322;-73
2022/11/01 05:30:36;;;;;;;15.10;10.73;;;;;;;4.24;100.00;101353.19;4848422;29;20358;-75
2022/11/01 05:33:03;;;;;;;12.97;10.70;;;;;;;4.30;100.00;101358.03;4864326;29;20281;-76
2022/11/01 05:35:30;;;;;;;16.30;10.87;;;;;;;4.40;100.00;101374.09;4867646;29;20299;-75
2022/11/01 05:37:56;;;;;;;21.67;11.77;;;;;;;4.39;100.00;101364.47;4865983;29;20384;-73
2022/11/01 05:40:22;;;;;;;23.33;12.70;;;;;;;4.39;100.00;101361.00;4864500;29;20270;-75
2022/11/01 05:42:48;;;;;;;22.57;14.87;;;;;;;4.37;100.00;101357.63;4865083;29;20750;-73
2022/11/01 05:45:14;;;;;;;23.43;14.57;;;;;;;4.34;100.00;101358.69;4863256;29;20266;-75
2022/11/01 05:47:40;;;;;;;24.77;13.67;;;;;;;4.41;100.00;101354.66;4862798;29;20466;-75
2022/11/01 05:50:10;;;;;;;19.53;13.13;;;;;;;4.43;100.00;101362.47;4863747;29;20352;-77
2022/11/01 05:52:36;;;;;;;16.73;11.47;;;;;;;4.40;100.00;101350.34;4866587;29;20047;-74
2022/11/01 05:55:03;;;;;;;18.03;13.90;;;;;;;4.43;100.00;101351.91;4863618;29;20314;-74
2022/11/01 05:57:29;;;;;;;26.43;16.87;;;;;;;4.43;100.00;101347.50;4864679;29;20026;-75
2022/11/01 05:59:55;;;;;;;24.03;14.53;;;;;;;4.46;100.00;101349.06;4863272;29;20748;-74
2022/11/01 06:02:20;;;;;;;21.00;15.30;;;;;;;4.54;100.00;101352.00;4865454;29;20078;-76
2022/11/01 06:04:46;;;;;;;35.57;20.57;;;;;;;4.50;100.00;101348.72;4866789;29;20030;-73
2022/11/01 06:07:15;;;;;;;40.37;22.60;;;;;;;4.55;100.00;101357.16;4867149;29;20029;-74
2022/11/01 06:09:43;;;;;;;28.23;17.92;;;;;;;4.63;100.00;101354.00;4870972;29;20052;-74
2022/11/01 06:12:08;;;;;;;23.50;14.98;;;;;;;4.61;100.00;101348.78;4862001;29;20053;-75
2022/11/01 06:14:34;;;;;;;25.13;15.20;;;;;;;4.64;100.00;101345.13;4860029;29;20446;-75
2022/11/01 06:17:00;;;;;;;35.70;17.77;;;;;;;4.71;100.00;101345.53;4844838;29;20057;-75
2022/11/01 06:19:25;;;;;;;28.17;15.50;;;;;;;4.75;100.00;101353.09;4846445;29;20032;-74
2022/11/01 06:21:51;;;;;;;25.47;14.97;;;;;;;4.73;100.00;101346.25;4863562;29;20382;-74
2022/11/01 06:24:16;;;;;;;31.63;19.30;;;;;;;4.69;100.00;101331.59;4862899;29;20035;-75
2022/11/01 06:26:42;;;;;;;29.87;18.33;;;;;;;4.87;100.00;101349.56;4863552;29;20030;-77
2022/11/01 06:29:08;;;;;;;31.93;18.07;;;;;;;4.91;100.00;101340.47;4845236;29;20090;-77
2022/11/01 06:31:33;;;;;;;28.87;17.40;;;;;;;4.93;100.00;101350.94;4859757;29;20041;-75
2022/11/01 06:33:59;;;;;;;21.87;14.37;;;;;;;4.95;100.00;101351.66;4861826;29;20528;-76
2022/11/01 06:36:24;;;;;;;28.73;16.40;;;;;;;4.93;100.00;101343.84;4861819;29;20466;-75
2022/11/01 06:38:50;;;;;;;29.40;15.57;;;;;;;4.94;100.00;101342.91;4861512;29;20069;-75
2022/11/01 06:41:16;;;;;;;22.40;13.77;;;;;;;4.96;100.00;101342.78;4861466;29;20489;-77
2022/11/01 06:43:41;;;;;;;22.80;12.93;;;;;;;4.76;100.00;101302.00;4861762;29;20033;-74
2022/11/01 06:46:07;;;;;;;22.80;13.63;;;;;;;4.96;100.00;101330.44;4861332;29;20038;-74
2022/11/01 06:48:33;;;;;;;24.83;14.63;;;;;;;5.04;100.00;101335.13;4861699;29;20033;-75
2022/11/01 06:51:02;;;;;;;22.03;13.30;;;;;;;4.96;100.00;101316.38;4861402;29;20040;-75
2022/11/01 06:53:27;;;;;;;;;;;;;;;5.25;100.00;101344.13;4861974;29;20109;-75
2022/11/01 06:55:53;;;;;;;34.47;15.47;;;;;;;5.26;100.00;101340.53;4861835;29;20384;-74
2022/11/01 06:58:19;;;;;;;42.50;21.93;;;;;;;5.27;100.00;101349.28;4859371;29;20030;-75
2022/11/01 07:00:44;;;;;;;41.80;21.77;;;;;;;5.22;100.00;101335.59;4862388;29;20293;-74
2022/11/01 07:03:13;;;;;;;49.53;21.27;;;;;;;5.28;100.00;101343.88;4862302;29;20029;-75
2022/11/01 07:05:39;;;;;;;39.58;21.50;;;;;;;5.33;100.00;101347.97;4861768;29;20101;-75
2022/11/01 07:08:12;;;;;;;57.87;27.87;;;;;;;5.41;100.00;101346.44;4861522;29;20093;-74
2022/11/01 07:10:41;;;;;;;61.43;29.13;;;;;;;5.41;100.00;101340.31;4861651;29;20325;-76
2022/11/01 07:13:12;;;;;;;58.10;25.03;;;;;;;5.30;100.00;101317.38;4861665;29;20286;-75
2022/11/01 07:15:39;;;;;;;60.22;27.73;;;;;;;5.47;100.00;101345.97;4861727;29;20285;-75
2022/11/01 07:18:07;;;;;;;53.23;24.80;;;;;;;5.53;100.00;101345.53;4861249;29;20050;-75
2022/11/01 07:20:39;;;;;;;56.47;27.80;;;;;;;5.53;100.00;101349.97;4860395;29;20040;-77
2022/11/01 07:23:07;;;;;;;47.37;23.77;;;;;;;5.51;100.00;101349.25;4869200;29;20049;-76
2022/11/01 07:25:34;;;;;;;40.10;21.50;;;;;;;5.49;100.00;101333.53;4877480;29;20266;-74
2022/11/01 07:28:00;;;;;;;35.33;17.50;;;;;;;5.48;100.00;101341.53;4874989;29;20350;-72
2022/11/01 07:30:26;;;;;;;39.40;17.70;;;;;;;5.58;100.00;101356.59;4865317;29;20353;-75
2022/11/01 07:33:00;;;;;;;32.27;17.97;;;;;;;5.60;100.00;101353.84;4862708;29;20466;-75
2022/11/01 07:35:26;;;;;;;31.27;16.87;;;;;;;5.63;100.00;101352.75;4860727;29;20277;-75
2022/11/01 07:37:55;;;;;;;32.50;18.20;;;;;;;5.63;100.00;101343.03;4860641;29;20262;-77
2022/11/01 07:40:26;;;;;;;40.20;18.60;;;;;;;5.62;100.00;101340.50;4844183;29;20326;-75
2022/11/01 07:42:54;;;;;;;37.17;18.97;;;;;;;5.68;100.00;101347.97;4859324;29;20312;-75
2022/11/01 07:45:20;;;;;;;41.75;19.42;;;;;;;5.74;100.00;101353.63;4861103;29;20029;-73
2022/11/01 07:47:45;;;;;;;37.63;20.70;;;;;;;5.77;100.00;101348.09;4860943;29;20047;-76
2022/11/01 07:50:11;;;;;;;42.37;19.80;;;;;;;5.70;100.00;101344.25;4860776;29;20029;-75
2022/11/01 07:52:36;;;;;;;41.03;21.63;;;;;;;5.69;100.00;101350.47;4860009;29;20073;-76
2022/11/01 07:55:02;;;;;;;31.93;19.87;;;;;;;5.65;100.00;101354.31;4860319;29;20040;-74
2022/11/01 07:57:28;;;;;;;35.47;21.80;;;;;;;5.58;100.00;101343.38;4860592;29;20041;-73
2022/11/01 07:59:56;;;;;;;33.03;20.37;;;;;;;5.53;100.00;101340.25;4860548;29;20262;-75
2022/11/01 08:02:22;;;;;;;37.58;20.30;;;;;;;5.60;100.00;101351.19;4860976;29;20062;-74
2022/11/01 08:04:47;;;;;;;36.87;20.60;;;;;;;5.58;100.00;101342.53;4860368;29;20124;-75
2022/11/01 08:07:13;;;;;;;40.33;22.70;;;;;;;5.58;100.00;101343.38;4860228;29;20486;-75
2022/11/01 08:09:38;;;;;;;38.67;22.87;;;;;;;5.60;100.00;101337.97;4860113;29;20041;-76
2022/11/01 08:12:05;;;;;;;40.63;22.37;;;;;;;5.60;100.00;101341.47;4860285;29;20053;-75
2022/11/01 08:14:33;;;;;;;34.15;22.15;;;;;;;5.59;100.00;101344.22;4860367;29;20129;-76
2022/11/01 08:17:00;;;;;;;40.53;23.90;;;;;;;5.55;100.00;101333.06;4844361;29;20140;-75
2022/11/01 08:19:26;;;;;;;46.37;25.87;;;;;;;5.58;100.00;101342.53;4859946;29;20034;-77
2022/11/01 08:21:51;;;;;;;47.03;26.13;;;;;;;5.52;100.00;101338.56;4859731;29;20390;-75
2022/11/01 08:24:17;;;;;;;52.50;26.63;;;;;;;5.51;100.00;101341.34;4860596;29;20112;-74
2022/11/01 08:26:43;;;;;;;48.03;28.23;;;;;;;5.52;100.00;101349.13;4860662;29;20121;-75
2022/11/01 08:29:09;;;;;;;51.40;28.77;;;;;;;5.48;100.00;101320.41;4860929;29;20078;-74
2022/11/01 08:31:39;;;;;;;53.10;31.87;;;;;;;5.64;100.00;101341.22;4860621;29;20057;-77
2022/11/01 08:34:04;;;;;;;61.07;29.83;;;;;;;5.64;100.00;101338.59;4860379;29;20471;-75
2022/11/01 08:36:30;;;;;;;45.60;27.13;;;;;;;5.66;100.00;101339.31;4860564;29;20274;-75
2022/11/01 08:38:56;;;;;;;52.27;30.50;;;;;;;5.60;100.00;101337.97;4860654;29;20037;-76
2022/11/01 08:41:22;;;;;;;46.83;29.20;;;;;;;5.63;100.00;101340.38;4860918;29;20089;-75
2022/11/01 08:43:48;;;;;;;42.83;28.17;;;;;;;5.68;100.00;101338.22;4860050;29;20274;-77
2022/11/01 08:46:13;;;;;;;47.60;26.07;;;;;;;5.78;100.00;101339.22;4860425;29;20270;-75
2022/11/01 08:48:39;;;;;;;44.57;26.97;;;;;;;5.74;100.00;101327.19;4861758;29;20091;-75
2022/11/01 08:51:04;;;;;;;52.57;30.00;;;;;;;5.82;100.00;101345.97;4861946;29;20032;-75
2022/11/01 08:53:30;;;;;;;52.27;28.20;;;;;;;5.81;100.00;101336.34;4843708;29;20060;-75
2022/11/01 08:55:56;;;;;;;45.17;27.60;;;;;;;5.74;100.00;101321.91;4860040;29;20034;-75
2022/11/01 08:58:48;;;;;;;47.33;28.23;;;;;;;5.85;100.00;101329.03;4861271;29;20057;-75
2022/11/01 09:01:16;;;;;;;57.90;29.13;;;;;;;5.96;100.00;101336.16;4860231;29;20283;-76
2022/11/01 09:03:45;;;;;;;50.42;30.00;;;;;;;5.96;100.00;101331.69;4865164;29;20271;-75
2022/11/01 09:06:14;;;;;;;51.23;28.80;;;;;;;6.02;100.00;101335.66;4862612;29;20060;-75
2022/11/01 09:08:40;;;;;;;;;;;;;;;6.10;100.00;101338.56;4844421;29;20033;-74
2022/11/01 09:11:06;;;;;;;39.97;24.37;;;;;;;6.09;100.00;101329.81;4858188;29;20280;-75
2022/11/01 09:13:32;;;;;;;40.27;24.33;;;;;;;6.09;100.00;101323.66;4860121;29;20033;-76
2022/11/01 09:15:58;;;;;;;34.73;23.50;;;;;;;6.17;100.00;101319.47;4859534;29;20470;-76
2022/11/01 09:18:24;;;;;;;43.73;23.30;;;;;;;6.24;100.00;101318.97;4859686;29;20270;-75
2022/11/01 09:20:54;;;;;;;40.00;22.73;;;;;;;6.22;100.00;101309.34;4860253;29;20029;-76
2022/11/01 09:23:20;;;;;;;40.57;21.73;;;;;;;6.16;100.00;101298.41;4863656;29;20032;-75
2022/11/01 09:25:45;;;;;;;42.33;22.10;;;;;;;6.25;100.00;101310.06;4863420;29;20025;-75
2022/11/01 09:28:11;;;;;;;38.23;21.97;;;;;;;6.22;100.00;101309.34;4863722;29;20385;-76
2022/11/01 09:30:36;;;;;;;40.47;23.97;;;;;;;6.25;100.00;101313.56;4863032;29;20029;-79
2022/11/01 09:33:04;;;;;;;38.50;23.17;;;;;;;6.29;100.00;101312.34;4864107;29;20025;-73
2022/11/01 09:35:29;;;;;;;59.07;30.27;;;;;;;6.27;100.00;101308.97;4866014;29;20057;-75
2022/11/01 09:37:59;;;;;;;53.70;28.13;;;;;;;6.33;100.00;101307.66;4866812;29;20120;-76
2022/11/01 09:40:27;;;;;;;66.00;31.63;;;;;;;6.29;100.00;101307.06;4873329;29;20423;-75
2022/11/01 09:42:53;;;;;;;51.80;26.52;;;;;;;6.30;100.00;101303.44;4866687;29;20037;-76
2022/11/01 09:45:22;;;;;;;45.50;26.03;;;;;;;6.36;100.00;101313.56;4863153;29;20037;-75
2022/11/01 09:47:54;;;;;;;41.93;24.90;;;;;;;6.38;100.00;101316.09;4846168;29;20097;-75
2022/11/01 09:50:28;;;;;;;53.20;28.43;;;;;;;6.41;100.00;101311.38;4862929;29;20116;-74
2022/11/01 09:52:55;;;;;;;69.10;32.23;;;;;;;6.25;100.00;101289.75;4861332;29;20040;-75
2022/11/01 09:55:33;;;;;;;69.07;32.43;;;;;;;6.45;100.00;101307.53;4862616;29;20068;-74
2022/11/01 09:58:14;;;;;;;72.73;34.17;;;;;;;6.40;100.00;101293.84;4862546;29;20082;-75
2022/11/01 10:00:53;;;;;;;64.67;30.17;;;;;;;6.53;100.00;101305.09;4862654;29;20037;-76
2022/11/01 10:03:37;;;;;;;73.57;30.80;;;;;;;6.53;100.00;101294.50;4862361;29;20082;-75
2022/11/01 10:06:14;;;;;;;91.80;40.90;;;;;;;6.56;100.00;101297.88;4861999;29;20461;-77
2022/11/01 10:08:49;;;;;;;91.97;39.33;;;;;;;6.60;100.00;101294.00;4862957;29;20032;-78
2022/11/01 10:11:21;;;;;;;86.47;38.43;;;;;;;6.60;100.00;101300.16;4849520;29;20363;-77
2022/11/01 10:13:50;;;;;;;89.13;39.63;;;;;;;6.65;100.00;101300.66;4844902;29;20045;-75
2022/11/01 10:16:15;;;;;;;;;;;;;;;6.72;100.00;101298.34;4842191;29;20093;-75
2022/11/01 10:18:46;;;;;;;106.20;45.17;;;;;;;6.72;100.00;101293.03;4843868;29;19913;-75
2022/11/01 10:21:15;;;;;;;124.13;48.20;;;;;;;6.70;100.00;101281.75;4827050;29;20034;-74
2022/11/01 10:23:51;;;;;;;94.95;42.80;;;;;;;6.74;100.00;101288.47;4843396;29;20033;-76
2022/11/01 10:26:25;;;;;;;106.50;41.83;;;;;;;6.77;100.00;101291.69;4843279;29;20042;-75
2022/11/01 10:28:58;;;;;;;102.87;40.17;;;;;;;6.80;100.00;101290.59;4843602;29;20057;-76
2022/11/01 10:31:26;;;;;;;112.73;40.50;;;;;;;6.87;100.00;101296.22;4843564;29;20034;-76
2022/11/01 10:34:10;;;;;;;113.37;39.10;;;;;;;6.90;100.00;101291.50;4843040;29;20037;-78
2022/11/01 10:36:38;;;;;;;113.47;36.57;;;;;;;6.91;100.00;101293.19;4844250;29;20033;-74
2022/11/01 10:39:22;;;;;;;107.80;37.23;;;;;;;6.73;100.00;101249.72;4844181;29;20033;-74
2022/11/01 10:41:53;;;;;;;109.27;36.90;;;;;;;6.94;100.00;101282.38;4843157;29;20029;-77
2022/11/01 10:44:38;;;;;;;125.13;40.67;;;;;;;6.96;100.00;101285.75;4843249;29;20124;-76
2022/11/01 10:47:07;;;;;;;139.03;42.63;;;;;;;6.89;100.00;101289.00;4843228;29;20507;-76
2022/11/01 10:49:44;;;;;;;117.33;39.40;;;;;;;6.88;100.00;101287.31;4842941;29;20026;-76
2022/11/01 10:52:14;;;;;;;112.73;42.03;;;;;;;6.83;100.00;101290.34;4842939;29;20029;-76
2022/11/01 10:54:43;;;;;;;98.20;38.40;;;;;;;6.80;100.00;101296.72;4843372;29;20030;-75
2022/11/01 10:57:34;;;;;;;105.53;40.03;;;;;;;6.88;100.00;101292.63;4843275;29;20040;-75
2022/11/01 11:00:05;;;;;;;117.17;41.07;;;;;;;6.84;100.00;101286.72;4842747;29;20041;-75
2022/11/01 11:02:38;;;;;;;128.57;41.20;;;;;;;6.84;100.00;101284.91;4842911;29;20090;-75
2022/11/01 11:05:04;;;;;;;122.90;44.37;;;;;;;6.85;100.00;101288.41;4842951;29;20087;-76
2022/11/01 11:07:33;;;;;;;119.73;42.10;;;;;;;6.91;100.00;101298.50;4842928;29;20025;-77
2022/11/01 11:10:02;;;;;;;123.63;41.87;;;;;;;6.95;100.00;101289.34;4843415;29;20030;-76
2022/11/01 11:12:30;;;;;;;127.80;45.40;;;;;;;7.03;100.00;101284.25;4842874;29;20487;-75
2022/11/01 11:15:09;;;;;;;105.33;40.40;;;;;;;7.02;100.00;101272.00;4842241;29;20040;-76
2022/11/01 11:17:38;;;;;;;110.10;39.27;;;;;;;7.18;100.00;101286.59;4843216;29;20467;-75
2022/11/01 11:20:09;;;;;;;92.67;34.30;;;;;;;7.22;100.00;101286.19;4827736;29;20569;-75
2022/11/01 11:22:40;;;;;;;97.50;38.47;;;;;;;7.29;100.00;101290.03;4843288;29;20079;-76
2022/11/01 11:25:16;;;;;;;88.67;37.10;;;;;;;7.36;100.00;101288.56;4843227;29;20033;-75
2022/11/01 11:27:48;;;;;;;63.97;24.80;;;;;;;7.41;100.00;101280.22;4843333;29;20038;-75
2022/11/01 11:30:31;;;;;;;54.13;23.00;;;;;;;7.52;100.00;101284.59;4842336;29;20030;-77
2022/11/01 11:32:57;;;;;;;48.17;20.67;;;;;;;7.58;100.00;101284.09;4843566;29;20054;-73